sensor_id;sensor_type;location;lat;lon;timestamp;temperature;humidity
18083;DHT22;9168;51.194;6.840;2023-07-28T00:00:10;17.40;99.90
18083;DHT22;9168;51.194;6.840;2023-07-28T00:02:38;17.40;99.90
18083;DHT22;9168;51.194;6.840;2023-07-28T00:05:06;17.40;99.90
18083;DHT22;9168;51.194;6.840;2023-07-28T00:07:33;17.40;99.90
18083;DHT22;9168;51.194;6.840;2023-07-28T00:10:01;17.40;99.90
18083;DHT22;9168;51.194;6.840;2023-07-28T00:12:28;17.40;99.90
18083;DHT22;9168;51.194;6.840;2023-07-28T00:14:55;17.40;99.90
18083;DHT22;9168;51.194;6.840;2023-07-28T00:17:22;17.40;99.90
18083;DHT22;9168;51.194;6.840;2023-07-28T00:19:50;17.40;99.90
18083;DHT22;9168;51.194;6.840;2023-07-28T00:22:17;17.40;99.90
18083;DHT22;9168;51.194;6.840;2023-07-28T00:24:44;17.50;99.90
18083;DHT22;9168;51.194;6.840;2023-07-28T00:27:11;17.50;99.90
18083;DHT22;9168;51.194;6.840;2023-07-28T00:29:40;17.50;99.90
18083;DHT22;9168;51.194;6.840;2023-07-28T00:32:07;17.50;99.90
18083;DHT22;9168;51.194;6.840;2023-07-28T00:34:34;17.40;99.90
18083;DHT22;9168;51.194;6.840;2023-07-28T00:37:03;17.50;99.90
18083;DHT22;9168;51.194;6.840;2023-07-28T00:39:29;17.50;99.90
18083;DHT22;9168;51.194;6.840;2023-07-28T00:41:56;17.50;99.90
18083;DHT22;9168;51.194;6.840;2023-07-28T00:44:23;17.50;99.90
18083;DHT22;9168;51.194;6.840;2023-07-28T00:46:50;17.50;99.90
18083;DHT22;9168;51.194;6.840;2023-07-28T00:49:17;17.50;99.90
18083;DHT22;9168;51.194;6.840;2023-07-28T00:51:45;17.50;99.90
18083;DHT22;9168;51.194;6.840;2023-07-28T00:54:14;17.50;99.90
18083;DHT22;9168;51.194;6.840;2023-07-28T00:56:41;17.50;99.90
18083;DHT22;9168;51.194;6.840;2023-07-28T00:59:08;17.50;99.90
18083;DHT22;9168;51.194;6.840;2023-07-28T01:01:34;17.50;99.90
18083;DHT22;9168;51.194;6.840;2023-07-28T01:04:02;17.50;99.90
18083;DHT22;9168;51.194;6.840;2023-07-28T01:06:33;17.50;99.90
18083;DHT22;9168;51.194;6.840;2023-07-28T01:09:05;17.50;99.90
18083;DHT22;9168;51.194;6.840;2023-07-28T01:11:35;17.50;99.90
18083;DHT22;9168;51.194;6.840;2023-07-28T01:14:02;17.50;99.90
18083;DHT22;9168;51.194;6.840;2023-07-28T01:16:29;17.50;99.90
18083;DHT22;9168;51.194;6.840;2023-07-28T01:18:56;17.50;99.90
18083;DHT22;9168;51.194;6.840;2023-07-28T01:21:26;17.50;99.90
18083;DHT22;9168;51.194;6.840;2023-07-28T01:24:01;17.50;99.90
18083;DHT22;9168;51.194;6.840;2023-07-28T01:26:34;17.50;99.90
18083;DHT22;9168;51.194;6.840;2023-07-28T01:29:02;17.50;99.90
18083;DHT22;9168;51.194;6.840;2023-07-28T01:31:30;17.50;99.90
18083;DHT22;9168;51.194;6.840;2023-07-28T01:33:57;17.50;99.90
18083;DHT22;9168;51.194;6.840;2023-07-28T01:36:24;17.50;99.90
18083;DHT22;9168;51.194;6.840;2023-07-28T01:38:52;17.50;99.90
18083;DHT22;9168;51.194;6.840;2023-07-28T01:41:20;17.50;99.90
18083;DHT22;9168;51.194;6.840;2023-07-28T01:43:48;17.50;99.90
18083;DHT22;9168;51.194;6.840;2023-07-28T01:46:15;17.50;99.90
18083;DHT22;9168;51.194;6.840;2023-07-28T01:48:42;17.50;99.90
18083;DHT22;9168;51.194;6.840;2023-07-28T01:51:09;17.40;99.90
18083;DHT22;9168;51.194;6.840;2023-07-28T01:53:35;17.50;99.90
18083;DHT22;9168;51.194;6.840;2023-07-28T01:56:03;17.50;99.90
18083;DHT22;9168;51.194;6.840;2023-07-28T01:58:29;17.50;99.90
18083;DHT22;9168;51.194;6.840;2023-07-28T02:00:58;17.50;99.90
18083;DHT22;9168;51.194;6.840;2023-07-28T02:03:25;17.50;99.90
18083;DHT22;9168;51.194;6.840;2023-07-28T02:05:51;17.50;99.90
18083;DHT22;9168;51.194;6.840;2023-07-28T02:08:18;17.50;99.90
18083;DHT22;9168;51.194;6.840;2023-07-28T02:10:45;17.40;99.90
18083;DHT22;9168;51.194;6.840;2023-07-28T02:13:12;17.40;99.90
18083;DHT22;9168;51.194;6.840;2023-07-28T02:15:39;17.50;99.90
18083;DHT22;9168;51.194;6.840;2023-07-28T02:18:07;17.50;99.90
18083;DHT22;9168;51.194;6.840;2023-07-28T02:20:34;17.40;99.90
18083;DHT22;9168;51.194;6.840;2023-07-28T02:23:01;17.50;99.90
18083;DHT22;9168;51.194;6.840;2023-07-28T02:25:28;17.40;99.90
18083;DHT22;9168;51.194;6.840;2023-07-28T02:27:55;17.40;99.90
18083;DHT22;9168;51.194;6.840;2023-07-28T02:30:23;17.40;99.90
18083;DHT22;9168;51.194;6.840;2023-07-28T02:32:49;17.50;99.90
18083;DHT22;9168;51.194;6.840;2023-07-28T02:35:18;17.40;99.90
18083;DHT22;9168;51.194;6.840;2023-07-28T02:37:45;17.40;99.90
18083;DHT22;9168;51.194;6.840;2023-07-28T02:40:11;17.40;99.90
18083;DHT22;9168;51.194;6.840;2023-07-28T02:42:39;17.40;99.90
18083;DHT22;9168;51.194;6.840;2023-07-28T02:45:07;17.40;99.90
18083;DHT22;9168;51.194;6.840;2023-07-28T02:47:35;17.40;99.90
18083;DHT22;9168;51.194;6.840;2023-07-28T02:50:03;17.40;99.90
18083;DHT22;9168;51.194;6.840;2023-07-28T02:52:31;17.40;99.90
18083;DHT22;9168;51.194;6.840;2023-07-28T02:54:58;17.40;99.90
18083;DHT22;9168;51.194;6.840;2023-07-28T02:57:25;17.40;99.90
18083;DHT22;9168;51.194;6.840;2023-07-28T02:59:52;17.40;99.90
18083;DHT22;9168;51.194;6.840;2023-07-28T03:02:19;17.40;99.90
18083;DHT22;9168;51.194;6.840;2023-07-28T03:04:46;17.40;99.90
18083;DHT22;9168;51.194;6.840;2023-07-28T03:07:13;17.40;99.90
18083;DHT22;9168;51.194;6.840;2023-07-28T03:09:41;17.40;99.90
18083;DHT22;9168;51.194;6.840;2023-07-28T03:12:08;17.40;99.90
18083;DHT22;9168;51.194;6.840;2023-07-28T03:14:35;17.40;99.90
18083;DHT22;9168;51.194;6.840;2023-07-28T03:17:02;17.40;99.90
18083;DHT22;9168;51.194;6.840;2023-07-28T03:19:29;17.40;99.90
18083;DHT22;9168;51.194;6.840;2023-07-28T03:21:56;17.40;99.90
18083;DHT22;9168;51.194;6.840;2023-07-28T03:24:23;17.40;99.90
18083;DHT22;9168;51.194;6.840;2023-07-28T03:26:51;17.40;99.90
18083;DHT22;9168;51.194;6.840;2023-07-28T03:29:18;17.40;99.90
18083;DHT22;9168;51.194;6.840;2023-07-28T03:31:45;17.40;99.90
18083;DHT22;9168;51.194;6.840;2023-07-28T03:34:12;17.40;99.90
18083;DHT22;9168;51.194;6.840;2023-07-28T03:36:39;17.40;99.90
18083;DHT22;9168;51.194;6.840;2023-07-28T03:39:06;17.40;99.90
18083;DHT22;9168;51.194;6.840;2023-07-28T03:41:33;17.40;99.90
18083;DHT22;9168;51.194;6.840;2023-07-28T03:44:01;17.40;99.90
18083;DHT22;9168;51.194;6.840;2023-07-28T03:46:28;17.50;99.90
18083;DHT22;9168;51.194;6.840;2023-07-28T03:48:55;17.40;99.90
18083;DHT22;9168;51.194;6.840;2023-07-28T03:51:23;17.50;99.90
18083;DHT22;9168;51.194;6.840;2023-07-28T03:53:50;17.40;99.90
18083;DHT22;9168;51.194;6.840;2023-07-28T03:56:17;17.40;99.90
18083;DHT22;9168;51.194;6.840;2023-07-28T03:58:44;17.50;99.90
18083;DHT22;9168;51.194;6.840;2023-07-28T04:01:12;17.40;99.90
18083;DHT22;9168;51.194;6.840;2023-07-28T04:03:39;17.40;99.90
18083;DHT22;9168;51.194;6.840;2023-07-28T04:06:10;17.40;99.90
18083;DHT22;9168;51.194;6.840;2023-07-28T04:08:37;17.50;99.90
18083;DHT22;9168;51.194;6.840;2023-07-28T04:11:04;17.50;99.90
18083;DHT22;9168;51.194;6.840;2023-07-28T04:13:31;17.40;99.90
18083;DHT22;9168;51.194;6.840;2023-07-28T04:15:58;17.50;99.90
18083;DHT22;9168;51.194;6.840;2023-07-28T04:18:26;17.50;99.90
18083;DHT22;9168;51.194;6.840;2023-07-28T04:20:53;17.40;99.90
18083;DHT22;9168;51.194;6.840;2023-07-28T04:23:20;17.40;99.90
18083;DHT22;9168;51.194;6.840;2023-07-28T04:25:47;17.50;99.90
18083;DHT22;9168;51.194;6.840;2023-07-28T04:28:14;17.50;99.90
18083;DHT22;9168;51.194;6.840;2023-07-28T04:30:41;17.40;99.90
18083;DHT22;9168;51.194;6.840;2023-07-28T04:33:08;17.50;99.90
18083;DHT22;9168;51.194;6.840;2023-07-28T04:35:36;17.50;99.90
18083;DHT22;9168;51.194;6.840;2023-07-28T04:38:03;17.50;99.90
18083;DHT22;9168;51.194;6.840;2023-07-28T04:40:30;17.50;99.90
18083;DHT22;9168;51.194;6.840;2023-07-28T04:42:56;17.50;99.90
18083;DHT22;9168;51.194;6.840;2023-07-28T04:45:23;17.50;99.90
18083;DHT22;9168;51.194;6.840;2023-07-28T04:47:50;17.50;99.90
18083;DHT22;9168;51.194;6.840;2023-07-28T04:50:18;17.50;99.90
18083;DHT22;9168;51.194;6.840;2023-07-28T04:52:46;17.50;99.90
18083;DHT22;9168;51.194;6.840;2023-07-28T04:55:13;17.50;99.90
18083;DHT22;9168;51.194;6.840;2023-07-28T04:57:40;17.60;99.90
18083;DHT22;9168;51.194;6.840;2023-07-28T05:00:08;17.60;99.90
18083;DHT22;9168;51.194;6.840;2023-07-28T05:02:35;17.60;99.90
18083;DHT22;9168;51.194;6.840;2023-07-28T05:05:02;17.60;99.90
18083;DHT22;9168;51.194;6.840;2023-07-28T05:07:29;17.60;99.90
18083;DHT22;9168;51.194;6.840;2023-07-28T05:09:57;17.60;99.90
18083;DHT22;9168;51.194;6.840;2023-07-28T05:12:24;17.60;99.90
18083;DHT22;9168;51.194;6.840;2023-07-28T05:14:51;17.60;99.90
18083;DHT22;9168;51.194;6.840;2023-07-28T05:17:18;17.60;99.90
18083;DHT22;9168;51.194;6.840;2023-07-28T05:19:45;17.60;99.90
18083;DHT22;9168;51.194;6.840;2023-07-28T05:22:12;17.60;99.90
18083;DHT22;9168;51.194;6.840;2023-07-28T05:24:39;17.60;99.90
18083;DHT22;9168;51.194;6.840;2023-07-28T05:27:07;17.70;99.90
18083;DHT22;9168;51.194;6.840;2023-07-28T05:29:34;17.70;99.90
18083;DHT22;9168;51.194;6.840;2023-07-28T05:32:01;17.80;99.90
18083;DHT22;9168;51.194;6.840;2023-07-28T05:34:28;17.80;99.90
18083;DHT22;9168;51.194;6.840;2023-07-28T05:36:54;17.80;99.90
18083;DHT22;9168;51.194;6.840;2023-07-28T05:39:21;17.80;99.90
18083;DHT22;9168;51.194;6.840;2023-07-28T05:41:48;17.80;99.90
18083;DHT22;9168;51.194;6.840;2023-07-28T05:44:16;17.80;99.90
18083;DHT22;9168;51.194;6.840;2023-07-28T05:46:43;17.80;99.90
18083;DHT22;9168;51.194;6.840;2023-07-28T05:49:11;17.80;99.90
18083;DHT22;9168;51.194;6.840;2023-07-28T05:51:38;17.80;99.90
18083;DHT22;9168;51.194;6.840;2023-07-28T05:54:05;17.80;99.90
18083;DHT22;9168;51.194;6.840;2023-07-28T05:56:31;17.80;99.90
18083;DHT22;9168;51.194;6.840;2023-07-28T05:58:58;17.80;99.90
18083;DHT22;9168;51.194;6.840;2023-07-28T06:01:27;17.80;99.90
18083;DHT22;9168;51.194;6.840;2023-07-28T06:03:53;17.80;99.90
18083;DHT22;9168;51.194;6.840;2023-07-28T06:06:24;17.80;99.90
18083;DHT22;9168;51.194;6.840;2023-07-28T06:08:51;17.80;99.90
18083;DHT22;9168;51.194;6.840;2023-07-28T06:11:20;17.80;99.90
18083;DHT22;9168;51.194;6.840;2023-07-28T06:13:47;17.80;99.90
18083;DHT22;9168;51.194;6.840;2023-07-28T06:16:14;17.80;99.90
18083;DHT22;9168;51.194;6.840;2023-07-28T06:18:42;17.80;99.90
18083;DHT22;9168;51.194;6.840;2023-07-28T06:21:09;17.90;99.90
18083;DHT22;9168;51.194;6.840;2023-07-28T06:23:36;17.90;99.90
18083;DHT22;9168;51.194;6.840;2023-07-28T06:26:03;17.90;99.90
18083;DHT22;9168;51.194;6.840;2023-07-28T06:28:30;17.90;99.90
18083;DHT22;9168;51.194;6.840;2023-07-28T06:30:58;17.90;99.90
18083;DHT22;9168;51.194;6.840;2023-07-28T06:33:25;17.90;99.90
18083;DHT22;9168;51.194;6.840;2023-07-28T06:35:53;17.90;99.90
18083;DHT22;9168;51.194;6.840;2023-07-28T06:38:20;17.90;99.90
18083;DHT22;9168;51.194;6.840;2023-07-28T06:40:47;17.90;99.90
18083;DHT22;9168;51.194;6.840;2023-07-28T06:43:14;18.00;99.90
18083;DHT22;9168;51.194;6.840;2023-07-28T06:45:41;18.00;99.90
18083;DHT22;9168;51.194;6.840;2023-07-28T06:48:08;18.00;99.90
18083;DHT22;9168;51.194;6.840;2023-07-28T06:50:35;18.00;99.90
18083;DHT22;9168;51.194;6.840;2023-07-28T06:53:03;18.10;99.90
18083;DHT22;9168;51.194;6.840;2023-07-28T06:55:30;18.10;99.90
18083;DHT22;9168;51.194;6.840;2023-07-28T06:57:57;18.10;99.90
18083;DHT22;9168;51.194;6.840;2023-07-28T07:00:24;18.10;99.90
18083;DHT22;9168;51.194;6.840;2023-07-28T07:02:51;18.10;99.90
18083;DHT22;9168;51.194;6.840;2023-07-28T07:05:18;18.10;99.90
18083;DHT22;9168;51.194;6.840;2023-07-28T07:07:45;18.10;99.90
18083;DHT22;9168;51.194;6.840;2023-07-28T07:10:13;18.10;99.90
18083;DHT22;9168;51.194;6.840;2023-07-28T07:12:40;18.10;99.90
18083;DHT22;9168;51.194;6.840;2023-07-28T07:15:08;18.10;99.90
18083;DHT22;9168;51.194;6.840;2023-07-28T07:17:37;18.20;99.90
18083;DHT22;9168;51.194;6.840;2023-07-28T07:20:06;18.20;99.90
18083;DHT22;9168;51.194;6.840;2023-07-28T07:22:33;18.20;99.90
18083;DHT22;9168;51.194;6.840;2023-07-28T07:25:00;18.20;99.90
18083;DHT22;9168;51.194;6.840;2023-07-28T07:27:28;18.30;99.90
18083;DHT22;9168;51.194;6.840;2023-07-28T07:29:55;18.30;99.90
18083;DHT22;9168;51.194;6.840;2023-07-28T07:32:22;18.30;99.90
18083;DHT22;9168;51.194;6.840;2023-07-28T07:34:49;18.40;99.90
18083;DHT22;9168;51.194;6.840;2023-07-28T07:37:17;18.40;99.90
18083;DHT22;9168;51.194;6.840;2023-07-28T07:39:44;18.40;99.90
18083;DHT22;9168;51.194;6.840;2023-07-28T07:42:12;18.40;99.90
18083;DHT22;9168;51.194;6.840;2023-07-28T07:44:40;18.40;99.90
18083;DHT22;9168;51.194;6.840;2023-07-28T07:47:15;18.50;99.90
18083;DHT22;9168;51.194;6.840;2023-07-28T07:49:43;18.50;99.90
18083;DHT22;9168;51.194;6.840;2023-07-28T07:52:10;18.50;99.90
18083;DHT22;9168;51.194;6.840;2023-07-28T07:54:37;18.50;99.90
18083;DHT22;9168;51.194;6.840;2023-07-28T07:57:05;18.50;99.90
18083;DHT22;9168;51.194;6.840;2023-07-28T07:59:32;18.50;99.90
18083;DHT22;9168;51.194;6.840;2023-07-28T08:02:00;18.60;99.90
18083;DHT22;9168;51.194;6.840;2023-07-28T08:06:56;18.60;99.90
18083;DHT22;9168;51.194;6.840;2023-07-28T08:09:23;18.60;99.90
18083;DHT22;9168;51.194;6.840;2023-07-28T08:11:50;18.60;99.90
18083;DHT22;9168;51.194;6.840;2023-07-28T08:14:18;18.60;99.90
18083;DHT22;9168;51.194;6.840;2023-07-28T08:16:45;18.60;99.90
18083;DHT22;9168;51.194;6.840;2023-07-28T08:19:13;18.60;99.90
18083;DHT22;9168;51.194;6.840;2023-07-28T08:21:40;18.60;99.90
18083;DHT22;9168;51.194;6.840;2023-07-28T08:24:07;18.60;99.90
18083;DHT22;9168;51.194;6.840;2023-07-28T08:26:34;18.70;99.90
18083;DHT22;9168;51.194;6.840;2023-07-28T08:29:01;18.70;99.90
18083;DHT22;9168;51.194;6.840;2023-07-28T08:31:28;18.70;99.90
18083;DHT22;9168;51.194;6.840;2023-07-28T08:33:55;18.60;99.90
18083;DHT22;9168;51.194;6.840;2023-07-28T08:36:23;18.70;99.90
18083;DHT22;9168;51.194;6.840;2023-07-28T08:38:50;18.70;99.90
18083;DHT22;9168;51.194;6.840;2023-07-28T08:41:17;18.80;99.90
18083;DHT22;9168;51.194;6.840;2023-07-28T08:43:45;18.80;99.90
18083;DHT22;9168;51.194;6.840;2023-07-28T08:46:12;18.90;99.90
18083;DHT22;9168;51.194;6.840;2023-07-28T08:48:39;18.90;99.90
18083;DHT22;9168;51.194;6.840;2023-07-28T08:51:06;18.90;99.90
18083;DHT22;9168;51.194;6.840;2023-07-28T08:53:35;18.90;99.90
18083;DHT22;9168;51.194;6.840;2023-07-28T08:56:02;19.00;99.90
18083;DHT22;9168;51.194;6.840;2023-07-28T08:58:30;19.00;99.90
18083;DHT22;9168;51.194;6.840;2023-07-28T09:00:57;19.00;99.90
18083;DHT22;9168;51.194;6.840;2023-07-28T09:03:26;19.10;99.90
18083;DHT22;9168;51.194;6.840;2023-07-28T09:05:59;19.10;99.90
18083;DHT22;9168;51.194;6.840;2023-07-28T09:08:26;19.20;99.90
18083;DHT22;9168;51.194;6.840;2023-07-28T09:10:55;19.20;99.90
18083;DHT22;9168;51.194;6.840;2023-07-28T09:13:22;19.30;99.90
18083;DHT22;9168;51.194;6.840;2023-07-28T09:15:49;19.30;99.90
18083;DHT22;9168;51.194;6.840;2023-07-28T09:18:17;19.30;99.90
18083;DHT22;9168;51.194;6.840;2023-07-28T09:20:44;19.30;99.90
18083;DHT22;9168;51.194;6.840;2023-07-28T09:23:13;19.40;99.90
18083;DHT22;9168;51.194;6.840;2023-07-28T09:25:41;19.50;99.90
18083;DHT22;9168;51.194;6.840;2023-07-28T09:28:10;19.50;99.90
18083;DHT22;9168;51.194;6.840;2023-07-28T09:30:45;19.60;99.90
18083;DHT22;9168;51.194;6.840;2023-07-28T09:33:12;19.60;99.90
18083;DHT22;9168;51.194;6.840;2023-07-28T09:35:48;19.60;99.90
18083;DHT22;9168;51.194;6.840;2023-07-28T09:38:15;19.60;99.90
18083;DHT22;9168;51.194;6.840;2023-07-28T09:40:43;19.70;99.90
18083;DHT22;9168;51.194;6.840;2023-07-28T09:43:12;19.70;99.90
18083;DHT22;9168;51.194;6.840;2023-07-28T09:45:42;19.70;99.90
18083;DHT22;9168;51.194;6.840;2023-07-28T09:48:11;19.70;99.90
18083;DHT22;9168;51.194;6.840;2023-07-28T09:50:41;19.70;99.90
18083;DHT22;9168;51.194;6.840;2023-07-28T09:53:09;19.70;99.90
18083;DHT22;9168;51.194;6.840;2023-07-28T09:55:39;19.70;99.90
18083;DHT22;9168;51.194;6.840;2023-07-28T09:58:09;19.90;99.90
18083;DHT22;9168;51.194;6.840;2023-07-28T10:00:38;19.90;99.90
18083;DHT22;9168;51.194;6.840;2023-07-28T10:03:07;20.10;99.90
18083;DHT22;9168;51.194;6.840;2023-07-28T10:05:35;20.20;99.90
18083;DHT22;9168;51.194;6.840;2023-07-28T10:08:03;20.40;99.90
18083;DHT22;9168;51.194;6.840;2023-07-28T10:10:31;20.60;99.90
18083;DHT22;9168;51.194;6.840;2023-07-28T10:12:59;20.70;99.90
18083;DHT22;9168;51.194;6.840;2023-07-28T10:15:30;20.80;99.90
18083;DHT22;9168;51.194;6.840;2023-07-28T10:17:59;20.80;99.90
18083;DHT22;9168;51.194;6.840;2023-07-28T10:20:31;20.90;99.90
18083;DHT22;9168;51.194;6.840;2023-07-28T10:23:05;21.00;99.90
18083;DHT22;9168;51.194;6.840;2023-07-28T10:28:51;20.90;99.90
18083;DHT22;9168;51.194;6.840;2023-07-28T10:31:29;20.90;99.90
18083;DHT22;9168;51.194;6.840;2023-07-28T10:33:58;20.90;99.90
18083;DHT22;9168;51.194;6.840;2023-07-28T10:36:33;20.90;99.90
18083;DHT22;9168;51.194;6.840;2023-07-28T10:39:02;20.80;99.90
18083;DHT22;9168;51.194;6.840;2023-07-28T10:41:38;20.80;99.90
18083;DHT22;9168;51.194;6.840;2023-07-28T10:44:07;20.70;99.90
18083;DHT22;9168;51.194;6.840;2023-07-28T10:46:35;20.70;99.90
18083;DHT22;9168;51.194;6.840;2023-07-28T10:49:05;20.70;99.90
18083;DHT22;9168;51.194;6.840;2023-07-28T10:51:36;20.70;99.90
18083;DHT22;9168;51.194;6.840;2023-07-28T10:54:03;20.60;99.90
18083;DHT22;9168;51.194;6.840;2023-07-28T10:56:29;20.70;99.90
18083;DHT22;9168;51.194;6.840;2023-07-28T10:58:57;20.70;99.90
18083;DHT22;9168;51.194;6.840;2023-07-28T11:01:30;20.90;99.90
18083;DHT22;9168;51.194;6.840;2023-07-28T11:04:07;21.10;99.90
18083;DHT22;9168;51.194;6.840;2023-07-28T11:06:35;21.70;99.90
18083;DHT22;9168;51.194;6.840;2023-07-28T11:09:02;22.00;99.90
18083;DHT22;9168;51.194;6.840;2023-07-28T11:11:31;22.00;99.90
18083;DHT22;9168;51.194;6.840;2023-07-28T11:14:00;21.80;99.90
18083;DHT22;9168;51.194;6.840;2023-07-28T11:16:26;21.90;99.90
18083;DHT22;9168;51.194;6.840;2023-07-28T11:18:55;22.20;99.90
18083;DHT22;9168;51.194;6.840;2023-07-28T11:21:24;22.90;99.90
18083;DHT22;9168;51.194;6.840;2023-07-28T11:23:51;23.60;99.90
18083;DHT22;9168;51.194;6.840;2023-07-28T11:26:19;24.00;99.90
18083;DHT22;9168;51.194;6.840;2023-07-28T11:28:48;24.40;99.90
18083;DHT22;9168;51.194;6.840;2023-07-28T11:31:14;24.80;99.90
18083;DHT22;9168;51.194;6.840;2023-07-28T11:33:41;25.10;99.90
18083;DHT22;9168;51.194;6.840;2023-07-28T11:36:08;25.20;99.90
18083;DHT22;9168;51.194;6.840;2023-07-28T11:38:36;25.40;99.90
18083;DHT22;9168;51.194;6.840;2023-07-28T11:41:04;25.70;99.90
18083;DHT22;9168;51.194;6.840;2023-07-28T11:43:33;25.70;99.90
18083;DHT22;9168;51.194;6.840;2023-07-28T11:46:00;25.30;99.90
18083;DHT22;9168;51.194;6.840;2023-07-28T11:48:30;24.80;99.90
18083;DHT22;9168;51.194;6.840;2023-07-28T11:50:57;24.40;99.90
18083;DHT22;9168;51.194;6.840;2023-07-28T11:53:25;24.20;99.90
18083;DHT22;9168;51.194;6.840;2023-07-28T11:55:54;24.10;99.90
18083;DHT22;9168;51.194;6.840;2023-07-28T11:58:22;23.90;99.90
18083;DHT22;9168;51.194;6.840;2023-07-28T12:00:51;23.70;99.90
18083;DHT22;9168;51.194;6.840;2023-07-28T12:06:04;23.20;99.90
18083;DHT22;9168;51.194;6.840;2023-07-28T12:08:35;23.00;99.90
18083;DHT22;9168;51.194;6.840;2023-07-28T12:11:04;22.90;99.90
18083;DHT22;9168;51.194;6.840;2023-07-28T12:13:32;23.20;99.90
18083;DHT22;9168;51.194;6.840;2023-07-28T12:15:58;23.80;99.90
18083;DHT22;9168;51.194;6.840;2023-07-28T12:18:30;24.00;99.90
18083;DHT22;9168;51.194;6.840;2023-07-28T12:20:57;23.80;99.90
18083;DHT22;9168;51.194;6.840;2023-07-28T12:23:25;23.70;99.90
18083;DHT22;9168;51.194;6.840;2023-07-28T12:25:52;23.50;99.90
18083;DHT22;9168;51.194;6.840;2023-07-28T12:28:22;23.30;99.90
18083;DHT22;9168;51.194;6.840;2023-07-28T12:30:49;23.10;99.90
18083;DHT22;9168;51.194;6.840;2023-07-28T12:33:17;22.90;99.90
18083;DHT22;9168;51.194;6.840;2023-07-28T12:35:44;22.80;99.90
18083;DHT22;9168;51.194;6.840;2023-07-28T12:38:11;22.70;99.90
18083;DHT22;9168;51.194;6.840;2023-07-28T12:40:38;22.60;99.90
18083;DHT22;9168;51.194;6.840;2023-07-28T12:43:05;22.70;99.90
18083;DHT22;9168;51.194;6.840;2023-07-28T12:45:33;22.80;99.90
18083;DHT22;9168;51.194;6.840;2023-07-28T12:48:00;22.80;99.90
18083;DHT22;9168;51.194;6.840;2023-07-28T12:50:27;22.90;99.90
18083;DHT22;9168;51.194;6.840;2023-07-28T12:52:54;23.00;99.90
18083;DHT22;9168;51.194;6.840;2023-07-28T12:55:21;23.10;99.90
18083;DHT22;9168;51.194;6.840;2023-07-28T12:57:48;23.10;99.90
18083;DHT22;9168;51.194;6.840;2023-07-28T13:00:15;23.10;99.90
18083;DHT22;9168;51.194;6.840;2023-07-28T13:02:45;23.10;99.90
18083;DHT22;9168;51.194;6.840;2023-07-28T13:05:13;22.90;99.90
18083;DHT22;9168;51.194;6.840;2023-07-28T13:07:41;22.70;99.90
18083;DHT22;9168;51.194;6.840;2023-07-28T13:10:09;22.60;99.90
18083;DHT22;9168;51.194;6.840;2023-07-28T13:12:36;22.40;99.90
18083;DHT22;9168;51.194;6.840;2023-07-28T13:15:04;22.30;99.90
18083;DHT22;9168;51.194;6.840;2023-07-28T13:17:31;22.30;99.90
18083;DHT22;9168;51.194;6.840;2023-07-28T13:19:59;22.20;99.90
18083;DHT22;9168;51.194;6.840;2023-07-28T13:22:26;22.20;99.90
18083;DHT22;9168;51.194;6.840;2023-07-28T13:24:53;22.00;99.90
18083;DHT22;9168;51.194;6.840;2023-07-28T13:27:20;21.90;99.90
18083;DHT22;9168;51.194;6.840;2023-07-28T13:29:47;21.80;99.90
18083;DHT22;9168;51.194;6.840;2023-07-28T13:32:18;21.70;99.90
18083;DHT22;9168;51.194;6.840;2023-07-28T13:34:45;21.50;99.90
18083;DHT22;9168;51.194;6.840;2023-07-28T13:37:14;21.50;99.90
18083;DHT22;9168;51.194;6.840;2023-07-28T13:39:41;21.30;99.90
18083;DHT22;9168;51.194;6.840;2023-07-28T13:42:08;21.20;99.90
18083;DHT22;9168;51.194;6.840;2023-07-28T13:44:37;21.20;99.90
18083;DHT22;9168;51.194;6.840;2023-07-28T13:47:04;21.10;99.90
18083;DHT22;9168;51.194;6.840;2023-07-28T13:49:32;21.10;99.90
18083;DHT22;9168;51.194;6.840;2023-07-28T13:52:01;21.00;99.90
18083;DHT22;9168;51.194;6.840;2023-07-28T13:54:29;21.00;99.90
18083;DHT22;9168;51.194;6.840;2023-07-28T13:56:56;21.00;99.90
18083;DHT22;9168;51.194;6.840;2023-07-28T13:59:23;21.00;99.90
18083;DHT22;9168;51.194;6.840;2023-07-28T14:01:50;21.00;99.90
18083;DHT22;9168;51.194;6.840;2023-07-28T14:04:16;21.00;99.90
18083;DHT22;9168;51.194;6.840;2023-07-28T14:06:43;20.90;99.90
18083;DHT22;9168;51.194;6.840;2023-07-28T14:09:10;20.90;99.90
18083;DHT22;9168;51.194;6.840;2023-07-28T14:11:40;21.00;99.90
18083;DHT22;9168;51.194;6.840;2023-07-28T14:14:07;21.00;99.90
18083;DHT22;9168;51.194;6.840;2023-07-28T14:16:34;21.00;99.90
18083;DHT22;9168;51.194;6.840;2023-07-28T14:19:01;21.10;99.90
18083;DHT22;9168;51.194;6.840;2023-07-28T14:21:28;21.00;99.90
18083;DHT22;9168;51.194;6.840;2023-07-28T14:23:55;21.00;99.90
18083;DHT22;9168;51.194;6.840;2023-07-28T14:26:22;21.00;99.90
18083;DHT22;9168;51.194;6.840;2023-07-28T14:28:50;21.00;99.90
18083;DHT22;9168;51.194;6.840;2023-07-28T14:31:18;21.00;99.90
18083;DHT22;9168;51.194;6.840;2023-07-28T14:33:45;21.00;99.90
18083;DHT22;9168;51.194;6.840;2023-07-28T14:36:12;21.00;99.90
18083;DHT22;9168;51.194;6.840;2023-07-28T14:38:39;21.10;99.90
18083;DHT22;9168;51.194;6.840;2023-07-28T14:41:06;21.10;99.90
18083;DHT22;9168;51.194;6.840;2023-07-28T14:43:33;21.10;99.90
18083;DHT22;9168;51.194;6.840;2023-07-28T14:46:01;21.10;99.90
18083;DHT22;9168;51.194;6.840;2023-07-28T14:48:28;21.10;99.90
18083;DHT22;9168;51.194;6.840;2023-07-28T14:50:55;21.10;99.90
18083;DHT22;9168;51.194;6.840;2023-07-28T14:53:29;21.00;99.90
18083;DHT22;9168;51.194;6.840;2023-07-28T14:55:57;21.10;99.90
18083;DHT22;9168;51.194;6.840;2023-07-28T14:58:24;21.10;99.90
18083;DHT22;9168;51.194;6.840;2023-07-28T15:00:51;21.20;99.90
18083;DHT22;9168;51.194;6.840;2023-07-28T15:03:19;21.20;99.90
18083;DHT22;9168;51.194;6.840;2023-07-28T15:05:47;21.30;99.90
18083;DHT22;9168;51.194;6.840;2023-07-28T15:08:14;21.30;99.90
18083;DHT22;9168;51.194;6.840;2023-07-28T15:10:41;21.40;99.90
18083;DHT22;9168;51.194;6.840;2023-07-28T15:13:08;21.40;99.90
18083;DHT22;9168;51.194;6.840;2023-07-28T15:15:35;21.40;99.90
18083;DHT22;9168;51.194;6.840;2023-07-28T15:18:02;21.50;99.90
18083;DHT22;9168;51.194;6.840;2023-07-28T15:20:30;21.60;99.90
18083;DHT22;9168;51.194;6.840;2023-07-28T15:22:57;21.60;99.90
18083;DHT22;9168;51.194;6.840;2023-07-28T15:25:24;21.60;99.90
18083;DHT22;9168;51.194;6.840;2023-07-28T15:27:51;21.60;99.90
18083;DHT22;9168;51.194;6.840;2023-07-28T15:30:18;21.60;99.90
18083;DHT22;9168;51.194;6.840;2023-07-28T15:32:45;21.60;99.90
18083;DHT22;9168;51.194;6.840;2023-07-28T15:35:12;21.60;99.90
18083;DHT22;9168;51.194;6.840;2023-07-28T15:37:40;21.60;99.90
18083;DHT22;9168;51.194;6.840;2023-07-28T15:40:08;21.50;99.90
18083;DHT22;9168;51.194;6.840;2023-07-28T15:42:35;21.50;99.90
18083;DHT22;9168;51.194;6.840;2023-07-28T15:45:02;21.40;99.90
18083;DHT22;9168;51.194;6.840;2023-07-28T15:47:29;21.30;99.90
18083;DHT22;9168;51.194;6.840;2023-07-28T15:49:58;21.30;99.90
18083;DHT22;9168;51.194;6.840;2023-07-28T15:52:25;21.20;99.90
18083;DHT22;9168;51.194;6.840;2023-07-28T15:54:53;21.10;99.90